Alpena, South Dakota
Current Conditions -  °F | °C
As of 6:55 AM on Friday 19 Dec 2014 (Local Time) from KHON Reporting Station
Haze Haze  
Wind Chill: 19°   Ceiling: 700
Heat Index: 28°   Visibility: 6mi
Dew Point: 25°   Wind: 10mph
Humidity: 88%   Direction: 170°S
Pressure: 30.09"   Gusts: NA
Location:  44.18°N, 98.37°W
Report Text: KHON 191255Z AUTO 17009KT 6SM BR OVC007 M02/M04 A3009 RMK AO2 SLP205 T10221039
Loading
Personal Weather Stations






























Interactive Weather Map New forecast layout! Learn more

10-Day Weather Forecast

Advertisements
Track Severe Weather on mobile